Barnes, Illinois
Current Conditions -  °F | °C
As of 5:56 PM on Sunday 25 Jan 2015 (Local Time) from KBMI Reporting Station
Overcast Overcast  
Wind Chill: 15°   Ceiling: 800
Heat Index: 29°   Visibility: 10mi
Dew Point: 27°   Wind: 24mph
Humidity: 92%   Direction: 30°NNE
Pressure: 29.86"   Gusts: 29mph
Location:  40.4766°N, 88.992°W
Report Text: KBMI 252356Z 03021G25KT 10SM OVC008 M02/M03 A2986 RMK AO2 53047 60001 T10161027 10011 21016 SNE54 P0000 PK WND 03032/2344 SLP128
Loading
Personal Weather Stations






























Interactive Weather Map New forecast layout! Learn more

10-Day Weather Forecast

Advertisements
Track Severe Weather on mobile